• Join FlightAware (Why Join?)
  • Login
  • US Flag 
01:49PM EDT


 

Airport Tracker/Info


-or-


 

Live Flight TrackerFlight Track Log ✈ SKW2918 ✈ 08-Jul-2013 ✈ KPHX - KELP

Flight Track Log - Related Links

Times and Time Zones

All times are in EDT time to prevent confusion due to time zone crossing. See the SKW2918 flight status page for this flight to view local times or setup timezone preferences in your user account.

Time Position Orientation Groundspeed Altitude Reporting Facility
EDT Latitude Longitude Course Direction KTS MPH feet Rate Location/Type
02:55AM 33.4500 -111.9833 90° East 145 167 1,600  Level Phoenix TRACON
02:56AM 33.4500 -111.9000 90° East 243 280 3,200 1,380 Climbing Phoenix TRACON
02:57AM 33.4369 -111.8350 104° East 282 325 4,600 1,860 Climbing Albuquerque Center
02:58AM 33.4108 -111.7472 110° East 283 326 6,900 2,100 Climbing Albuquerque Center
02:59AM 33.3864 -111.6550 108° East 292 336 8,900 1,740 Climbing Albuquerque Center
03:00AM 33.3608 -111.5572 107° East 306 352 10,500 1,200 Climbing Albuquerque Center
03:01AM 33.3314 -111.4461 108° East 353 406 11,400 1,260 Climbing Albuquerque Center
03:02AM 33.3022 -111.3353 107° East 352 405 13,100 1,560 Climbing Albuquerque Center
03:03AM 33.2731 -111.2225 107° East 356 410 14,600 1,380 Climbing Albuquerque Center
03:04AM 33.2431 -111.1067 107° East 365 420 15,900 1,380 Climbing Albuquerque Center
03:05AM 33.2069 -110.9678 107° East 367 422 17,400 1,200 Climbing Albuquerque Center
03:06AM 33.1764 -110.8475 107° East 375 432 18,400 720 Climbing Albuquerque Center
03:07AM 33.1456 -110.7264 107° East 382 440 18,900 840 Climbing Albuquerque Center
03:08AM 33.1128 -110.6072 108° East 380 437 20,100 1,200 Climbing Albuquerque Center
03:09AM 33.0844 -110.4933 107° East 365 420 21,400 1,260 Climbing Albuquerque Center
03:10AM 33.0536 -110.3831 108° East 354 407 22,700 1,020 Climbing Albuquerque Center
03:11AM 33.0222 -110.2706 108° East 356 410 23,500 780 Climbing Albuquerque Center
03:12AM 32.9919 -110.1553 107° East 363 418 24,300 720 Climbing Albuquerque Center
03:13AM 32.9611 -110.0367 107° East 372 428 25,000 660 Climbing Albuquerque Center
03:15AM 32.9079 -109.8379 108° East  Level FlightAware Approximate
03:16AM 32.8667 -109.6808 109° East 384 442 27,000  Level Albuquerque Center
03:17AM 32.8317 -109.5575 109° East 393 452 27,000  Level Albuquerque Center
03:18AM 32.7964 -109.4286 108° East 408 470 27,000  Level Albuquerque Center
03:19AM 32.7617 -109.2969 107° East 417 480 27,000  Level Albuquerque Center
03:20AM 32.7217 -109.1639 110° East 427 491 27,000  Level Albuquerque Center
03:21AM 32.6667 -109.0439 119° Southeast 430 495 27,000  Level Albuquerque Center
03:22AM 32.6668 -108.9730 109° East  Level FlightAware Approximate
03:22AM 32.5819 -108.9436 135° Southeast 433 498 27,000  Level Albuquerque Center
03:23AM 32.4875 -108.8581 143° Southeast 433 498 27,000  Level Albuquerque Center
03:24AM 32.3833 -108.7864 150° Southeast 436 502 27,000  Level Albuquerque Center
03:25AM 32.2719 -108.6703 139° Southeast 450 518 27,000  Level Albuquerque Center
03:26AM 32.2247 -108.5428 114° Southeast 441 507 27,000  Level Albuquerque Center
03:27AM 32.2047 -108.4089 100° East 427 491 27,000  Level Albuquerque Center
03:28AM 32.2189 -108.2692 83° East 430 495 27,000  Level Albuquerque Center
03:29AM 32.1817 -108.1353 108° East 437 503 27,000  Level Albuquerque Center
03:30AM 32.1414 -108.0047 110° East 430 495 27,000  Level Albuquerque Center
03:31AM 32.0997 -107.8744 111° Southeast 427 491 27,000  Level Albuquerque Center
03:32AM 32.0578 -107.7431 111° Southeast 430 495 27,000 -600 Level Albuquerque Center
03:33AM 32.0161 -107.6106 110° East 432 497 25,800 -1,740 Descending Albuquerque Center
03:34AM 31.9728 -107.4700 110° East 451 519 23,600 -2,340 Descending Albuquerque Center
03:35AM 31.9469 -107.3894 111° Southeast 457 526 22,300 -2,340 Descending Albuquerque Center
03:36AM 31.8914 -107.2156 111° Southeast 429 494 19,400 -2,160 Descending Albuquerque Center
03:37AM 31.8528 -107.0925 110° East 398 458 17,300 -2,280 Descending Albuquerque Center
03:38AM 31.8153 -106.9767 111° Southeast 371 427 14,900 -2,340 Descending Albuquerque Center
03:39AM 31.7794 -106.8706 112° Southeast 349 402 12,700 -2,040 Descending Albuquerque Center
03:40AM 31.7450 -106.7617 110° East 325 374 10,800 -1,740 Descending Albuquerque Center
03:41AM 31.7167 -106.6736 111° Southeast 281 323 9,300 -1,440 Descending Albuquerque Center
03:42AM 31.6914 -106.5925 110° East 259 298 7,900 -1,080 Descending Albuquerque Center
03:43AM 31.7133 -106.5247 69° East 219 252 7,200 -1,020 Descending Albuquerque Center
03:44AM 31.7436 -106.4797 52° Northeast 153 176 5,900 -1,140 Descending Albuquerque Center
03:45AM 31.7711 -106.4431 49° Northeast 141 162 4,900 -900 Descending Albuquerque Center
03:46AM 31.8014 -106.3994 51° Northeast 146 168 4,000 -840 Descending Albuquerque Center
03:48AM 31.8072 -106.3764 North  Level Estimated
03:55AM 31.8072 -106.3764 North  Level Estimated
03:56AM 31.8072 -106.3764 North  Level Estimated
03:57AM 31.8072 -106.3764 North  Level Estimated
03:58AM 31.8072 -106.3764 North  Level Estimated